Time;durP1;ratioP1;P1;durP2;ratioP2;P2;SDS_P1;SDS_P2;PMS_P1;PMS_P2;Temp;Humidity;BMP_temperature;BMP_pressure;BME280_temperature;BME280_humidity;BME280_pressure;Samples;Min_cycle;Max_cycle;Signal;HPM_P1;HPM_P2
2020/12/16 00:01:09;;;;;;;22.97;16.10;;;8.60;1.00;;;;;;5056517;28;20187;-76
2020/12/16 00:03:34;;;;;;;21.60;15.70;;;8.50;1.00;;;;;;5056162;28;20267;-73
2020/12/16 00:06:01;;;;;;;23.73;15.33;;;8.50;1.00;;;;;;5055127;28;20199;-56
2020/12/16 00:08:28;;;;;;;24.00;14.10;;;8.50;1.00;;;;;;5056078;28;20180;-56
2020/12/16 00:10:53;;;;;;;19.83;15.57;;;8.50;1.00;;;;;;5055976;28;20438;-72
2020/12/16 00:13:19;;;;;;;18.40;13.77;;;8.50;1.00;;;;;;5056109;28;20425;-55
2020/12/16 00:15:45;;;;;;;24.10;16.20;;;8.60;1.00;;;;;;5055118;28;20184;-55
2020/12/16 00:18:11;;;;;;;20.83;14.87;;;8.60;1.00;;;;;;5055179;28;20211;-70
2020/12/16 00:20:37;;;;;;;21.43;15.23;;;8.60;1.00;;;;;;5055382;28;20768;-71
2020/12/16 00:23:02;;;;;;;21.27;15.37;;;8.60;1.00;;;;;;5056089;28;20179;-71
2020/12/16 00:25:28;;;;;;;24.20;15.70;;;8.60;1.00;;;;;;5056028;28;20667;-55
2020/12/16 00:27:53;;;;;;;21.50;15.30;;;8.70;1.00;;;;;;5055438;28;20618;-55
2020/12/16 00:30:19;;;;;;;22.17;16.03;;;8.60;1.00;;;;;;5055869;28;20594;-71
2020/12/16 00:32:45;;;;;;;23.27;15.97;;;8.60;1.00;;;;;;5054318;28;20176;-72
2020/12/16 00:35:11;;;;;;;22.47;15.03;;;8.60;1.00;;;;;;5056065;28;20271;-55
2020/12/16 00:37:38;;;;;;;23.07;16.10;;;8.50;1.00;;;;;;5055074;28;20283;-54
2020/12/16 00:40:06;;;;;;;20.27;14.53;;;8.50;1.00;;;;;;5055771;28;20423;-70
2020/12/16 00:42:31;;;;;;;22.50;16.10;;;8.60;1.00;;;;;;5055406;28;20561;-55
2020/12/16 00:44:57;;;;;;;21.60;16.70;;;8.50;1.00;;;;;;5055600;28;20480;-55
2020/12/16 00:47:23;;;;;;;19.27;15.50;;;8.50;1.00;;;;;;5055081;28;20458;-70
2020/12/16 00:49:48;;;;;;;23.80;17.33;;;8.50;1.00;;;;;;5054942;28;20540;-55
2020/12/16 00:52:14;;;;;;;23.67;15.83;;;8.50;1.00;;;;;;5054729;28;20203;-58
2020/12/16 00:54:39;;;;;;;20.50;15.60;;;8.50;1.00;;;;;;5055116;28;20294;-71
2020/12/16 00:57:05;;;;;;;20.87;15.53;;;8.50;1.00;;;;;;5055463;28;20207;-71
2020/12/16 00:59:31;;;;;;;23.90;17.47;;;8.50;1.00;;;;;;5055124;28;20199;-71
2020/12/16 01:01:56;;;;;;;22.47;16.83;;;8.50;1.00;;;;;;5055234;28;20175;-71
2020/12/16 01:04:22;;;;;;;24.67;15.93;;;8.50;1.00;;;;;;5054177;28;20230;-72
2020/12/16 01:06:47;;;;;;;23.07;16.37;;;8.50;1.00;;;;;;5054712;28;20183;-55
2020/12/16 01:09:13;;;;;;;22.20;16.57;;;8.50;1.00;;;;;;5053847;28;20184;-72
2020/12/16 01:11:39;;;;;;;20.77;15.47;;;8.50;1.00;;;;;;5054814;28;20184;-72
2020/12/16 01:14:05;;;;;;;26.30;17.57;;;8.50;1.00;;;;;;5054209;28;20191;-55
2020/12/16 01:16:37;;;;;;;23.57;16.80;;;8.50;1.00;;;;;;5055125;28;20176;-72
2020/12/16 01:19:09;;;;;;;24.30;17.20;;;8.60;1.00;;;;;;5054023;28;20463;-71
2020/12/16 01:21:38;;;;;;;26.47;17.50;;;8.60;1.00;;;;;;5054913;28;20892;-72
2020/12/16 01:24:08;;;;;;;25.70;18.17;;;8.70;1.00;;;;;;5054460;28;20919;-54
2020/12/16 01:26:47;;;;;;;23.03;16.37;;;8.70;1.00;;;;;;5054837;28;20904;-71
2020/12/16 01:29:16;;;;;;;24.73;17.00;;;8.70;1.00;;;;;;5054695;28;20426;-55
2020/12/16 01:31:43;;;;;;;24.03;17.83;;;8.70;1.00;;;;;;5054720;28;20876;-55
2020/12/16 01:34:10;;;;;;;23.83;17.43;;;8.80;1.00;;;;;;5053947;28;20450;-66
2020/12/16 01:36:39;;;;;;;25.03;17.60;;;8.70;1.00;;;;;;5054593;28;20453;-72
2020/12/16 01:39:07;;;;;;;27.07;18.63;;;8.70;1.00;;;;;;5054376;28;20490;-55
2020/12/16 01:41:33;;;;;;;23.37;17.90;;;8.60;1.00;;;;;;5054968;28;20426;-55
2020/12/16 01:44:19;;;;;;;23.50;17.73;;;8.60;1.00;;;;;;5054684;28;20749;-55
2020/12/16 01:46:56;;;;;;;26.70;18.87;;;8.50;1.00;;;;;;5054055;28;20232;-71
2020/12/16 01:49:23;;;;;;;20.90;17.07;;;8.40;1.00;;;;;;5053556;28;20422;-72
2020/12/16 01:51:54;;;;;;;24.07;17.30;;;8.40;1.00;;;;;;5054329;28;20573;-72
2020/12/16 01:54:21;;;;;;;22.03;16.33;;;8.40;1.00;;;;;;5054554;28;20834;-72
2020/12/16 01:56:50;;;;;;;24.30;17.50;;;8.40;1.00;;;;;;5054023;28;20465;-72
2020/12/16 01:59:17;;;;;;;24.87;17.60;;;8.40;1.00;;;;;;5054176;28;20551;-55
2020/12/16 02:01:45;;;;;;;26.10;17.67;;;8.40;1.00;;;;;;5054170;28;20515;-55
2020/12/16 02:04:12;;;;;;;24.17;17.37;;;8.50;1.00;;;;;;5053949;28;20453;-71
2020/12/16 02:06:41;;;;;;;24.53;17.67;;;8.50;1.00;;;;;;5054190;28;20418;-72
2020/12/16 02:09:09;;;;;;;25.73;18.80;;;8.60;1.00;;;;;;5054140;28;20452;-72
2020/12/16 02:11:36;;;;;;;27.40;20.03;;;8.60;1.00;;;;;;5053179;28;20419;-56
2020/12/16 02:14:04;;;;;;;25.27;17.93;;;8.60;1.00;;;;;;5053933;28;20418;-55
2020/12/16 02:16:29;;;;;;;25.10;18.33;;;8.60;1.00;;;;;;5053610;28;20409;-72
2020/12/16 02:18:55;;;;;;;27.97;18.60;;;8.70;1.00;;;;;;5052895;28;20507;-72
2020/12/16 02:21:21;;;;;;;26.63;17.67;;;8.60;1.00;;;;;;5069587;28;20172;-70
2020/12/16 02:23:47;;;;;;;26.63;17.80;;;8.70;1.00;;;;;;5053500;28;20247;-72
2020/12/16 02:26:14;;;;;;;27.50;19.30;;;8.70;1.00;;;;;;5053288;28;20260;-72
2020/12/16 02:28:41;;;;;;;27.23;19.63;;;8.80;1.00;;;;;;5053921;28;20427;-55
2020/12/16 02:31:10;;;;;;;26.33;18.17;;;8.70;1.00;;;;;;5053858;28;20465;-55
2020/12/16 02:33:36;;;;;;;23.90;18.53;;;8.60;1.00;;;;;;5053296;28;20441;-55
2020/12/16 02:36:03;;;;;;;29.30;19.70;;;8.60;1.00;;;;;;5053894;28;20432;-71
2020/12/16 02:38:29;;;;;;;29.00;18.00;;;8.50;1.00;;;;;;5053327;28;20600;-58
2020/12/16 02:40:54;;;;;;;30.57;20.13;;;8.60;1.00;;;;;;5053135;28;20859;-55
2020/12/16 02:43:20;;;;;;;29.20;18.87;;;8.50;1.00;;;;;;5053101;28;20180;-56
2020/12/16 02:45:46;;;;;;;32.13;20.80;;;8.50;1.00;;;;;;5053605;28;20172;-70
2020/12/16 02:48:13;;;;;;;26.83;19.83;;;8.50;1.00;;;;;;5053727;28;20530;-72
2020/12/16 02:50:40;;;;;;;29.50;20.23;;;8.50;1.00;;;;;;5052955;28;21087;-73
2020/12/16 02:53:06;;;;;;;31.07;21.40;;;8.50;1.00;;;;;;5052989;28;20915;-55
2020/12/16 02:55:32;;;;;;;30.33;20.57;;;8.60;1.00;;;;;;5054715;28;20468;-55
2020/12/16 02:57:57;;;;;;;28.37;21.30;;;8.50;1.00;;;;;;5072772;28;20512;-56
2020/12/16 03:00:23;;;;;;;27.87;19.00;;;8.50;1.00;;;;;;5072951;28;20234;-56
2020/12/16 03:02:48;;;;;;;29.17;20.70;;;8.50;1.00;;;;;;5057333;28;20186;-72
2020/12/16 03:05:14;;;;;;;35.00;21.37;;;8.50;1.00;;;;;;5056910;28;20176;-56
2020/12/16 03:07:39;;;;;;;30.23;20.77;;;8.50;1.00;;;;;;5056857;28;20181;-55
2020/12/16 03:10:05;;;;;;;26.87;20.50;;;8.60;1.00;;;;;;5057058;28;20271;-56
2020/12/16 03:12:31;;;;;;;30.23;20.50;;;8.50;1.00;;;;;;5057122;28;20219;-56
2020/12/16 03:14:56;;;;;;;29.97;20.67;;;8.50;1.00;;;;;;5056663;28;20179;-72
2020/12/16 03:17:22;;;;;;;25.57;19.57;;;8.50;1.00;;;;;;5056797;28;20202;-72
2020/12/16 03:19:47;;;;;;;29.47;19.97;;;10.00;1.00;;;;;;5056782;28;20223;-71
2020/12/16 03:22:13;;;;;;;32.20;20.30;;;8.60;1.00;;;;;;5057067;28;20218;-55
2020/12/16 03:24:39;;;;;;;31.80;20.93;;;8.60;1.00;;;;;;5056811;28;20333;-55
2020/12/16 03:27:04;;;;;;;31.67;21.70;;;8.50;1.00;;;;;;5054915;28;20187;-72
2020/12/16 03:29:30;;;;;;;31.90;22.00;;;8.60;1.00;;;;;;5055720;28;20184;-56
2020/12/16 03:31:55;;;;;;;32.30;21.00;;;8.60;1.00;;;;;;5056520;28;20180;-55
2020/12/16 03:34:21;;;;;;;29.73;19.83;;;8.50;1.00;;;;;;5056464;28;20172;-72
2020/12/16 03:36:47;;;;;;;31.10;20.67;;;8.50;1.00;;;;;;5056517;28;20268;-56
2020/12/16 03:39:12;;;;;;;30.47;20.60;;;8.50;1.00;;;;;;5056673;28;20192;-55
2020/12/16 03:41:38;;;;;;;28.67;19.33;;;8.50;1.00;;;;;;5056691;28;20176;-55
2020/12/16 03:44:03;;;;;;;32.43;20.50;;;8.40;1.00;;;;;;5056336;28;20229;-72
2020/12/16 03:46:29;;;;;;;29.47;20.10;;;8.50;1.00;;;;;;5056505;28;20247;-56
2020/12/16 03:48:55;;;;;;;33.33;20.77;;;8.50;1.00;;;;;;5055527;28;20210;-73
2020/12/16 03:51:21;;;;;;;31.83;20.70;;;8.50;1.00;;;;;;5055940;28;20297;-73
2020/12/16 03:53:47;;;;;;;31.43;21.77;;;8.50;1.00;;;;;;5056693;28;20437;-73
2020/12/16 03:56:16;;;;;;;30.80;20.23;;;8.50;1.00;;;;;;5054610;28;20192;-73
2020/12/16 03:58:43;;;;;;;29.03;19.57;;;8.40;1.00;;;;;;5056796;28;20203;-72
2020/12/16 04:01:11;;;;;;;28.77;20.93;;;8.40;1.00;;;;;;5056803;28;20850;-73
2020/12/16 04:03:36;;;;;;;33.43;21.07;;;8.40;1.00;;;;;;5056759;28;20487;-72
2020/12/16 04:06:06;;;;;;;29.13;20.13;;;8.40;1.00;;;;;;5056201;28;20423;-56
2020/12/16 04:08:31;;;;;;;27.70;20.37;;;8.40;1.00;;;;;;5055716;28;20190;-55
2020/12/16 04:10:57;;;;;;;29.93;20.47;;;8.40;1.00;;;;;;5056122;28;20743;-55
2020/12/16 04:13:23;;;;;;;30.40;21.80;;;8.40;1.00;;;;;;5071770;28;20213;-72
2020/12/16 04:15:49;;;;;;;36.50;21.93;;;8.40;1.00;;;;;;5055819;28;20202;-71
2020/12/16 04:18:14;;;;;;;31.27;20.53;;;8.50;1.00;;;;;;5055900;28;20216;-72
2020/12/16 04:20:40;;;;;;;28.80;19.77;;;8.50;1.00;;;;;;5055326;28;20484;-72
2020/12/16 04:23:06;;;;;;;31.37;20.53;;;8.50;1.00;;;;;;5055459;28;20635;-72
2020/12/16 04:25:35;;;;;;;32.23;20.63;;;8.50;1.00;;;;;;5055606;28;20233;-56
2020/12/16 04:28:01;;;;;;;31.60;20.43;;;8.50;1.00;;;;;;5055574;28;20434;-71
2020/12/16 04:30:29;;;;;;;32.30;20.53;;;8.50;1.00;;;;;;5055725;28;20438;-71
2020/12/16 04:32:59;;;;;;;29.33;20.83;;;8.50;1.00;;;;;;5055811;28;20621;-71
2020/12/16 04:35:26;;;;;;;32.60;20.10;;;8.60;1.00;;;;;;5055732;28;20445;-55
2020/12/16 04:37:53;;;;;;;33.93;21.60;;;8.50;1.00;;;;;;5071242;28;20570;-71
2020/12/16 04:40:20;;;;;;;30.53;20.43;;;8.50;1.00;;;;;;5055224;28;20446;-72
2020/12/16 04:43:00;;;;;;;32.70;21.73;;;8.60;1.00;;;;;;5055477;28;20423;-72
2020/12/16 04:45:26;;;;;;;35.43;21.97;;;8.60;1.00;;;;;;5054496;28;20422;-71
2020/12/16 04:47:51;;;;;;;32.70;21.63;;;8.60;1.00;;;;;;5053887;28;20474;-55
2020/12/16 04:50:17;;;;;;;36.20;21.53;;;8.60;1.00;;;;;;5055381;28;20231;-55
2020/12/16 04:52:48;;;;;;;32.13;22.00;;;8.60;1.00;;;;;;5054110;28;20180;-55
2020/12/16 04:55:16;;;;;;;34.90;23.27;;;8.60;1.00;;;;;;5054091;28;20652;-55
2020/12/16 04:57:45;;;;;;;34.20;20.70;;;8.60;1.00;;;;;;5070258;28;20446;-55
2020/12/16 05:00:10;;;;;;;31.27;20.47;;;8.60;1.00;;;;;;5054325;28;20433;-72
2020/12/16 05:02:36;;;;;;;35.20;22.67;;;8.60;1.00;;;;;;5071184;28;20427;-72
2020/12/16 05:05:02;;;;;;;31.77;22.07;;;8.50;1.00;;;;;;5055018;28;20184;-72
2020/12/16 05:07:28;;;;;;;33.87;21.60;;;8.60;1.00;;;;;;5055457;28;20525;-73
2020/12/16 05:09:54;;;;;;;31.27;20.80;;;8.50;1.00;;;;;;5054964;28;20609;-55
2020/12/16 05:12:19;;;;;;;39.20;20.67;;;8.40;1.00;;;;;;5054726;28;20431;-56
2020/12/16 05:14:45;;;;;;;35.03;22.83;;;8.50;1.00;;;;;;5054993;28;20175;-55
2020/12/16 05:17:11;;;;;;;34.37;22.93;;;8.50;1.00;;;;;;5054980;28;20176;-55
2020/12/16 05:19:40;;;;;;;35.33;22.43;;;8.50;1.00;;;;;;5053988;28;20939;-62
2020/12/16 05:22:24;;;;;;;34.30;22.67;;;8.40;1.00;;;;;;5053837;28;20176;-64
2020/12/16 05:25:00;;;;;;;33.03;22.17;;;8.50;1.00;;;;;;5054276;28;20433;-57
2020/12/16 05:27:31;;;;;;;36.20;22.83;;;8.50;1.00;;;;;;5054758;28;20740;-63
2020/12/16 05:29:59;;;;;;;31.03;21.60;;;8.50;1.00;;;;;;5054917;28;20407;-62
2020/12/16 05:32:28;;;;;;;35.43;23.63;;;8.50;1.00;;;;;;5054544;28;20422;-60
2020/12/16 05:34:56;;;;;;;37.70;23.60;;;8.50;1.00;;;;;;5053123;28;20521;-66
2020/12/16 05:37:24;;;;;;;31.30;20.60;;;8.60;1.00;;;;;;5054874;28;20442;-65
2020/12/16 05:39:57;;;;;;;36.33;22.73;;;8.60;1.00;;;;;;5054425;28;20463;-65
2020/12/16 05:42:25;;;;;;;33.23;21.90;;;8.60;1.00;;;;;;5054498;28;20861;-65
2020/12/16 05:44:52;;;;;;;37.57;22.03;;;8.60;1.00;;;;;;5053801;28;20430;-56
2020/12/16 05:47:18;;;;;;;37.27;23.80;;;8.60;1.00;;;;;;5053748;28;20466;-56
2020/12/16 05:49:43;;;;;;;36.40;22.90;;;8.60;1.00;;;;;;5054107;28;20517;-56
2020/12/16 05:52:09;;;;;;;35.57;24.13;;;8.60;1.00;;;;;;5054064;28;20191;-57
2020/12/16 05:54:36;;;;;;;39.70;22.93;;;8.60;1.00;;;;;;5053126;28;20503;-56
2020/12/16 05:57:24;;;;;;;38.80;24.17;;;8.60;1.00;;;;;;5053166;28;20188;-57
2020/12/16 06:00:10;;;;;;;39.77;23.67;;;8.60;1.00;;;;;;5053358;28;20483;-64
2020/12/16 06:02:43;;;;;;;33.03;20.77;;;8.60;1.00;;;;;;5045363;28;20824;-58
2020/12/16 06:05:14;;;;;;;34.57;23.53;;;8.60;1.00;;;;;;5054088;28;20454;-55
2020/12/16 06:07:42;;;;;;;38.57;23.60;;;8.60;1.00;;;;;;5054027;28;20926;-64
2020/12/16 06:10:08;;;;;;;35.30;22.40;;;8.60;1.00;;;;;;5053741;28;20924;-63
2020/12/16 06:12:39;;;;;;;37.30;24.23;;;8.60;1.00;;;;;;5053955;28;20487;-56
2020/12/16 06:15:08;;;;;;;36.93;22.60;;;8.50;1.00;;;;;;5052808;28;20431;-56
2020/12/16 06:17:37;;;;;;;38.00;24.80;;;8.50;1.00;;;;;;5053161;28;20438;-56
2020/12/16 06:20:04;;;;;;;33.80;21.87;;;8.50;1.00;;;;;;5053187;28;20447;-64
2020/12/16 06:22:33;;;;;;;38.67;23.67;;;8.60;1.00;;;;;;5048472;28;20456;-56
2020/12/16 06:25:03;;;;;;;37.67;24.03;;;8.60;1.00;;;;;;5053979;28;20430;-63
2020/12/16 06:27:36;;;;;;;36.87;24.13;;;8.60;1.00;;;;;;5053550;28;20433;-55
2020/12/16 06:30:05;;;;;;;36.43;22.57;;;8.60;1.00;;;;;;5053872;28;20900;-63
2020/12/16 06:33:01;;;;;;;39.50;25.03;;;8.50;1.00;;;;;;5057867;28;20430;-55
2020/12/16 06:35:28;;;;;;;34.40;22.23;;;8.40;1.00;;;;;;5057977;28;20517;-64
2020/12/16 06:38:20;;;;;;;37.47;22.90;;;8.50;1.00;;;;;;5057798;28;20458;-55
2020/12/16 06:40:50;;;;;;;35.30;22.43;;;8.40;1.00;;;;;;5058098;28;20480;-63
2020/12/16 06:43:30;;;;;;;37.60;22.40;;;8.40;1.00;;;;;;5057633;28;20459;-63
2020/12/16 06:45:57;;;;;;;34.13;22.80;;;8.40;1.00;;;;;;5056942;28;20447;-56
2020/12/16 06:48:36;;;;;;;37.93;22.87;;;8.50;1.00;;;;;;5057627;28;20414;-55
2020/12/16 06:51:20;;;;;;;40.10;24.20;;;8.40;1.00;;;;;;5057359;28;20430;-56
2020/12/16 06:53:47;;;;;;;38.67;24.70;;;8.30;1.00;;;;;;5057734;28;20429;-64
2020/12/16 06:56:18;;;;;;;37.40;22.83;;;8.40;1.00;;;;;;5056220;28;20449;-63
2020/12/16 06:58:43;;;;;;;37.63;23.03;;;8.30;1.00;;;;;;5057580;28;20457;-56
2020/12/16 07:01:16;;;;;;;38.13;24.50;;;8.30;1.00;;;;;;5057492;28;20434;-56
2020/12/16 07:03:42;;;;;;;32.73;22.30;;;8.30;1.00;;;;;;5057478;28;20190;-64
2020/12/16 07:06:32;;;;;;;39.63;24.10;;;8.30;1.00;;;;;;5057356;28;20438;-56
2020/12/16 07:09:16;;;;;;;34.13;23.50;;;8.40;1.00;;;;;;5055762;28;20446;-56
2020/12/16 07:11:47;;;;;;;38.57;23.53;;;8.40;1.00;;;;;;5057393;28;20414;-55
2020/12/16 07:14:24;;;;;;;31.67;21.70;;;8.40;1.00;;;;;;5057523;28;20409;-56
2020/12/16 07:16:50;;;;;;;39.43;23.07;;;8.40;1.00;;;;;;5056976;28;20438;-56
2020/12/16 07:19:26;;;;;;;37.10;23.23;;;8.50;1.00;;;;;;5057110;28;20494;-55
2020/12/16 07:21:52;;;;;;;38.57;25.07;;;8.40;1.00;;;;;;5056975;28;20425;-55
2020/12/16 07:24:18;;;;;;;39.63;24.67;;;8.50;1.00;;;;;;5056027;28;20496;-64
2020/12/16 07:26:51;;;;;;;38.93;23.60;;;8.60;1.00;;;;;;5056162;28;20974;-55
2020/12/16 07:29:32;;;;;;;38.53;23.00;;;8.60;1.00;;;;;;5056896;28;20441;-64
2020/12/16 07:32:08;;;;;;;35.73;23.80;;;8.60;1.00;;;;;;5056894;28;20650;-56
2020/12/16 07:34:45;;;;;;;34.70;21.77;;;8.60;1.00;;;;;;5047222;28;20492;-63
2020/12/16 07:37:12;;;;;;;40.07;22.67;;;8.60;1.00;;;;;;5056935;28;20441;-63
2020/12/16 07:39:49;;;;;;;36.50;23.77;;;8.60;1.00;;;;;;5056611;28;20612;-65
2020/12/16 07:42:23;;;;;;;35.97;23.43;;;8.60;1.00;;;;;;5055930;28;20483;-56
2020/12/16 07:44:49;;;;;;;34.33;22.90;;;8.60;1.00;;;;;;5056167;28;20495;-63
2020/12/16 07:47:16;;;;;;;37.80;23.90;;;8.60;1.00;;;;;;5072045;28;20557;-54
2020/12/16 07:49:43;;;;;;;31.83;23.30;;;8.50;1.00;;;;;;5056538;28;20184;-55
2020/12/16 07:52:09;;;;;;;36.73;21.97;;;8.50;1.00;;;;;;5044919;28;20491;-54
2020/12/16 07:54:36;;;;;;;36.50;22.50;;;8.50;1.00;;;;;;5056723;28;20439;-54
2020/12/16 07:57:02;;;;;;;36.80;24.23;;;8.50;1.00;;;;;;5056046;28;20504;-54
2020/12/16 07:59:32;;;;;;;34.20;22.27;;;8.50;1.00;;;;;;5055845;28;20660;-54
2020/12/16 08:02:05;;;;;;;35.43;22.37;;;8.60;1.00;;;;;;5056127;28;20418;-64
2020/12/16 08:04:30;;;;;;;38.80;23.17;;;8.60;1.00;;;;;;5072204;28;20603;-54
2020/12/16 08:07:13;;;;;;;38.83;23.67;;;8.70;1.00;;;;;;5056397;28;20450;-64
2020/12/16 08:09:53;;;;;;;34.60;22.80;;;8.80;1.00;;;;;;5055906;28;20529;-63
2020/12/16 08:12:20;;;;;;;36.40;22.53;;;8.90;1.00;;;;;;5055891;28;20409;-63
2020/12/16 08:14:45;;;;;;;38.00;24.10;;;8.90;1.00;;;;;;5055827;28;20705;-63
2020/12/16 08:17:11;;;;;;;36.97;22.93;;;9.00;1.00;;;;;;5047188;28;20924;-55
2020/12/16 08:19:37;;;;;;;38.70;23.83;;;9.10;1.00;;;;;;5051618;28;20203;-55
2020/12/16 08:22:16;;;;;;;37.47;24.53;;;9.10;1.00;;;;;;5056199;28;20245;-55
2020/12/16 08:24:57;;;;;;;39.23;23.80;;;9.00;1.00;;;;;;5059000;28;20229;-63
2020/12/16 08:27:23;;;;;;;37.53;23.40;;;9.00;1.00;;;;;;5057145;28;20422;-63
2020/12/16 08:29:51;;;;;;;36.23;23.73;;;9.00;1.00;;;;;;5051613;28;20427;-62
2020/12/16 08:32:24;;;;;;;36.97;22.00;;;9.00;1.00;;;;;;5055975;28;20759;-63
2020/12/16 08:34:51;;;;;;;39.73;22.10;;;9.00;1.00;;;;;;5055880;28;20852;-65
2020/12/16 08:37:20;;;;;;;34.20;22.83;;;9.00;1.00;;;;;;5055366;28;20495;-64
2020/12/16 08:39:47;;;;;;;30.70;21.50;;;9.00;1.00;;;;;;5055193;28;20437;-64
2020/12/16 08:42:22;;;;;;;32.67;22.40;;;8.90;1.00;;;;;;5055799;28;20740;-63
2020/12/16 08:44:48;;;;;;;34.83;21.90;;;9.00;1.00;;;;;;5055910;28;20414;-63
2020/12/16 08:47:26;;;;;;;33.60;21.97;;;9.10;1.00;;;;;;5054932;28;20463;-64
2020/12/16 08:49:53;;;;;;;35.23;21.90;;;9.20;1.00;;;;;;5055431;28;20243;-54
2020/12/16 08:52:19;;;;;;;35.27;20.80;;;9.10;1.00;;;;;;5054672;28;20439;-63
2020/12/16 08:54:45;;;;;;;36.37;21.77;;;9.10;1.00;;;;;;5054737;28;20435;-55
2020/12/16 08:57:11;;;;;;;38.97;25.23;;;9.20;1.00;;;;;;5054280;28;20528;-65
2020/12/16 08:59:37;;;;;;;37.67;21.33;;;9.20;1.00;;;;;;5055275;28;20224;-64
2020/12/16 09:02:03;;;;;;;35.57;22.40;;;9.10;1.00;;;;;;5055327;28;20919;-63
2020/12/16 09:04:32;;;;;;;34.70;20.77;;;9.20;1.00;;;;;;5054868;28;20514;-64
2020/12/16 09:07:06;;;;;;;37.60;23.40;;;9.20;1.00;;;;;;5055227;28;20222;-56
2020/12/16 09:09:59;;;;;;;35.40;21.60;;;9.20;1.00;;;;;;5055120;28;20426;-55
2020/12/16 09:12:25;;;;;;;37.33;23.57;;;9.20;1.00;;;;;;5053931;28;20522;-63
2020/12/16 09:14:55;;;;;;;42.60;24.33;;;9.30;1.00;;;;;;5053805;28;20521;-67
2020/12/16 09:17:26;;;;;;;31.83;21.80;;;9.40;1.00;;;;;;5055041;28;20465;-66
2020/12/16 09:19:52;;;;;;;37.07;21.80;;;9.40;1.00;;;;;;5055056;28;20444;-64
2020/12/16 09:22:26;;;;;;;31.30;20.67;;;9.50;1.00;;;;;;5054926;28;20952;-55
2020/12/16 09:24:53;;;;;;;34.43;21.60;;;9.50;1.00;;;;;;5054918;28;20430;-54
2020/12/16 09:27:18;;;;;;;36.00;22.00;;;9.60;1.00;;;;;;5054751;28;20939;-56
2020/12/16 09:29:46;;;;;;;34.20;22.10;;;9.60;1.00;;;;;;5054009;28;20514;-55
2020/12/16 09:32:13;;;;;;;35.90;21.80;;;9.60;1.00;;;;;;5054640;28;20176;-64
2020/12/16 09:34:51;;;;;;;36.93;24.00;;;9.60;1.00;;;;;;5054665;28;20426;-54
2020/12/16 09:37:21;;;;;;;36.00;22.23;;;9.60;1.00;;;;;;5054456;28;20430;-54
2020/12/16 09:39:48;;;;;;;33.10;22.30;;;9.50;1.00;;;;;;5053503;28;20470;-55
2020/12/16 09:42:16;;;;;;;37.93;23.10;;;9.60;1.00;;;;;;5070242;28;20434;-65
2020/12/16 09:44:42;;;;;;;37.40;22.13;;;9.60;1.00;;;;;;5054462;28;20501;-65
2020/12/16 09:47:13;;;;;;;38.23;23.20;;;9.70;1.00;;;;;;5052990;28;20470;-64
2020/12/16 09:49:40;;;;;;;44.40;23.37;;;9.70;1.00;;;;;;5053953;28;20531;-63
2020/12/16 09:52:22;;;;;;;36.93;22.80;;;9.80;1.00;;;;;;5054228;28;20961;-55
2020/12/16 09:54:48;;;;;;;39.10;22.83;;;9.80;1.00;;;;;;5054403;28;20415;-56
2020/12/16 09:57:13;;;;;;;36.87;23.70;;;9.80;1.00;;;;;;5054565;28;20426;-64
2020/12/16 09:59:39;;;;;;;35.17;23.20;;;9.80;1.00;;;;;;5053877;28;20219;-55
2020/12/16 10:02:05;;;;;;;35.63;23.47;;;9.70;1.00;;;;;;5054076;28;20278;-54
2020/12/16 10:04:31;;;;;;;35.57;20.20;;;9.70;1.00;;;;;;5054044;28;20251;-54
2020/12/16 10:06:56;;;;;;;35.17;22.70;;;9.60;1.00;;;;;;5069815;28;20572;-54
2020/12/16 10:09:22;;;;;;;41.03;24.10;;;9.50;1.00;;;;;;5054174;28;20427;-54
2020/12/16 10:11:48;;;;;;;39.73;23.00;;;9.40;1.00;;;;;;5054127;28;20176;-54
2020/12/16 10:14:17;;;;;;;42.73;23.23;;;9.60;1.00;;;;;;5053982;28;20172;-54
2020/12/16 10:16:44;;;;;;;37.40;21.03;;;9.50;1.00;;;;;;5053593;28;20451;-63
2020/12/16 10:19:10;;;;;;;40.93;24.50;;;9.60;1.00;;;;;;5053833;28;20628;-56
2020/12/16 10:21:36;;;;;;;36.03;22.40;;;9.80;1.00;;;;;;5053850;28;20426;-55
2020/12/16 10:24:02;;;;;;;39.13;23.20;;;9.90;1.00;;;;;;5053920;28;20818;-55
2020/12/16 10:26:27;;;;;;;37.87;23.10;;;10.00;1.00;;;;;;5053899;28;20183;-56
2020/12/16 10:28:53;;;;;;;36.77;23.73;;;10.00;1.00;;;;;;5053986;28;20184;-56
2020/12/16 10:31:18;;;;;;;38.70;24.13;;;10.00;1.00;;;;;;5053874;28;20188;-55
2020/12/16 10:33:44;;;;;;;40.50;22.23;;;9.80;1.00;;;;;;5053917;28;20229;-54
2020/12/16 10:36:11;;;;;;;35.27;22.83;;;9.70;1.00;;;;;;5053891;28;20247;-64
2020/12/16 10:38:37;;;;;;;35.57;21.13;;;9.60;1.00;;;;;;5053436;28;20200;-55
2020/12/16 10:41:03;;;;;;;33.00;21.30;;;9.40;1.00;;;;;;5053952;28;20433;-54
2020/12/16 10:43:28;;;;;;;39.27;23.60;;;9.30;1.00;;;;;;5053825;28;20255;-63
2020/12/16 10:45:55;;;;;;;34.10;21.97;;;9.30;1.00;;;;;;5053619;28;20633;-55
2020/12/16 10:48:21;;;;;;;35.37;21.90;;;9.20;1.00;;;;;;5053750;28;20187;-64
2020/12/16 10:50:47;;;;;;;36.00;22.70;;;9.20;1.00;;;;;;5052714;28;20912;-64
2020/12/16 10:53:12;;;;;;;39.60;23.00;;;9.30;1.00;;;;;;5053642;28;20422;-55
2020/12/16 10:55:38;;;;;;;37.57;21.60;;;9.30;1.00;;;;;;5053670;28;20613;-55
2020/12/16 10:58:04;;;;;;;37.07;22.47;;;9.30;1.00;;;;;;5053474;28;20649;-63
2020/12/16 11:00:30;;;;;;;41.30;21.40;;;9.30;1.00;;;;;;5053370;28;20477;-54
2020/12/16 11:02:55;;;;;;;33.53;22.30;;;9.20;1.00;;;;;;5053392;28;20247;-54
2020/12/16 11:05:21;;;;;;;36.30;22.70;;;9.10;1.00;;;;;;5053441;28;20487;-54
2020/12/16 11:07:46;;;;;;;36.07;22.20;;;9.10;1.00;;;;;;5052827;28;20179;-65
2020/12/16 11:10:12;;;;;;;34.27;21.90;;;9.20;1.00;;;;;;5053560;28;20607;-64
2020/12/16 11:12:38;;;;;;;37.77;22.03;;;9.10;1.00;;;;;;5053674;28;20689;-64
2020/12/16 11:15:03;;;;;;;33.57;22.63;;;9.10;1.00;;;;;;5053585;28;20172;-54
2020/12/16 11:17:29;;;;;;;38.67;23.23;;;9.10;1.00;;;;;;5056017;28;20164;-63
2020/12/16 11:19:55;;;;;;;37.73;23.30;;;9.10;1.00;;;;;;5057009;28;20203;-63
2020/12/16 11:22:20;;;;;;;41.00;23.90;;;9.10;1.00;;;;;;5057091;28;20542;-64
2020/12/16 11:24:46;;;;;;;38.10;21.73;;;9.10;1.00;;;;;;5057063;28;20165;-64
2020/12/16 11:27:12;;;;;;;37.70;22.87;;;9.20;1.00;;;;;;5057045;28;20262;-65
2020/12/16 11:29:38;;;;;;;37.70;21.87;;;9.20;1.00;;;;;;5055927;28;20211;-66
2020/12/16 11:32:04;;;;;;;39.40;23.63;;;9.20;1.00;;;;;;5056958;28;20164;-56
2020/12/16 11:34:32;;;;;;;37.77;22.93;;;9.20;1.00;;;;;;5056925;28;20169;-54
2020/12/16 11:37:00;;;;;;;37.23;22.03;;;9.30;1.00;;;;;;5056452;28;20491;-55
2020/12/16 11:39:27;;;;;;;41.37;23.20;;;9.30;1.00;;;;;;5056827;28;20519;-55
2020/12/16 11:41:54;;;;;;;39.27;22.13;;;9.50;1.00;;;;;;5057077;28;20445;-64
2020/12/16 11:44:20;;;;;;;35.37;22.53;;;9.60;1.00;;;;;;5056491;28;20415;-64
2020/12/16 11:46:47;;;;;;;34.70;21.83;;;9.70;1.00;;;;;;5056427;28;20466;-64
2020/12/16 11:49:15;;;;;;;35.23;22.83;;;9.80;1.00;;;;;;5056539;28;20433;-55
2020/12/16 11:51:41;;;;;;;34.83;22.03;;;9.70;1.00;;;;;;5056654;28;20426;-64
2020/12/16 11:54:06;;;;;;;34.50;21.63;;;9.70;1.00;;;;;;5056272;28;20701;-55
2020/12/16 11:56:36;;;;;;;35.70;22.07;;;9.90;1.00;;;;;;5056425;28;20255;-55
2020/12/16 11:59:03;;;;;;;35.07;21.60;;;9.80;1.00;;;;;;5056226;28;20214;-56
2020/12/16 12:01:28;;;;;;;33.40;20.93;;;9.80;1.00;;;;;;5056151;28;20959;-54
2020/12/16 12:03:54;;;;;;;31.07;20.23;;;9.90;1.00;;;;;;5056278;28;20419;-64
2020/12/16 12:06:20;;;;;;;31.07;18.63;;;9.90;1.00;;;;;;5071192;28;20494;-64
2020/12/16 12:08:46;;;;;;;31.00;19.67;;;9.80;1.00;;;;;;5071904;28;20467;-54
2020/12/16 12:11:13;;;;;;;27.57;18.37;;;9.90;1.00;;;;;;5056138;28;20271;-57
2020/12/16 12:13:40;;;;;;;29.33;18.50;;;9.90;1.00;;;;;;5056003;28;20484;-55
2020/12/16 12:16:14;;;;;;;29.77;17.33;;;9.80;1.00;;;;;;5056418;28;20517;-54
2020/12/16 12:18:40;;;;;;;29.10;17.57;;;9.80;1.00;;;;;;5055778;28;20823;-54
2020/12/16 12:21:07;;;;;;;25.30;16.57;;;9.80;1.00;;;;;;5055939;28;20422;-63
2020/12/16 12:23:33;;;;;;;25.80;17.97;;;9.80;1.00;;;;;;5055908;28;20418;-54
2020/12/16 12:25:59;;;;;;;25.50;17.17;;;9.90;1.00;;;;;;5055884;28;20450;-55
2020/12/16 12:28:24;;;;;;;30.10;17.80;;;9.90;1.00;;;;;;5054576;28;20423;-54
2020/12/16 12:30:50;;;;;;;28.70;18.10;;;9.90;1.00;;;;;;5055611;28;20187;-55
2020/12/16 12:33:16;;;;;;;25.77;16.70;;;10.00;1.00;;;;;;5055626;28;20173;-55
2020/12/16 12:35:42;;;;;;;25.87;17.53;;;10.10;1.00;;;;;;5055553;28;20241;-55
2020/12/16 12:38:07;;;;;;;22.20;16.47;;;10.10;1.00;;;;;;5071333;28;20935;-55
2020/12/16 12:40:33;;;;;;;27.40;17.70;;;10.10;1.00;;;;;;5055757;28;20720;-56
2020/12/16 12:42:59;;;;;;;29.63;17.83;;;10.10;1.00;;;;;;5071372;28;20187;-54
2020/12/16 12:45:25;;;;;;;24.27;16.40;;;10.10;1.00;;;;;;5055781;28;20164;-64
2020/12/16 12:47:50;;;;;;;25.80;16.10;;;10.10;1.00;;;;;;5055482;28;20542;-64
2020/12/16 12:50:16;;;;;;;23.80;15.40;;;10.10;1.00;;;;;;5055551;28;20471;-64